Ronnie Rogers — WDD2270 — position and weather

sailwx.info

Track history (hours):
 
Tides and Currents Weather Stations Pressure Air Temp Water Temp Dewpoint Dewpoint Depression Visibility Wind Speed Wind Dir Waves Ship Positions

Ronnie Rogers

Owner: Florida Marine, LLC, Mandeville, LA. More information available from US FCC via Universal Licensing System and Coast Guard Vessel Documentation Center.

Last reported at 2017-Apr-18 02:05 UTC. Time now 2017-Apr-29 09:23 UTC.
Position N 29°51' W 091°53'.
Warning: this ship's position is 11 days out of date.

Length 27 m; draft 2.4 m.

Type: Towing. MMSI: 367113160.

Date/timePositionNaut miles runAvg speedWind from/ knotsBaromVisibWave heightAir tempDewpointWater temp
2017-Apr-18 02:05N 29°51' W 091°53'1 6.6
2017-Apr-18 02:00N 29°51' W 091°54'3 6.6
2017-Apr-18 01:30N 29°50' W 091°58'3 6.6
2017-Apr-18 01:00N 29°49' W 092°01'3 6.7
2017-Apr-18 00:30N 29°48' W 092°05'3 6.6
2017-Apr-18 00:00N 29°47' W 092°09'2 4.8
2017-Apr-17 23:30N 29°47' W 092°11'0 0.0
2017-Apr-17 23:00N 29°47' W 092°11'0 0.0
2017-Apr-17 22:30N 29°47' W 092°11'0 0.0
2017-Apr-17 22:00N 29°47' W 092°11'0 0.0
2017-Apr-17 21:30N 29°47' W 092°11'0 0.0
2017-Apr-17 21:01N 29°47' W 092°11'0 0.1
2017-Apr-17 20:30N 29°47' W 092°11'1 2.4
2017-Apr-17 20:00N 29°47' W 092°13'1 2.3
2017-Apr-17 19:30N 29°48' W 092°14'2 3.8
2017-Apr-17 19:00N 29°48' W 092°16'2 4.8
2017-Apr-17 18:30N 29°50' W 092°18'3 5.4
2017-Apr-17 18:00N 29°51' W 092°21'3 5.8
2017-Apr-17 17:29N 29°53' W 092°23'3 6.4
2017-Apr-17 17:00N 29°54' W 092°27'33 6.4
2017-Apr-17 11:52N 29°56' W 093°05'3 6.2
2017-Apr-17 11:20N 29°56' W 093°09'1 4.2
2017-Apr-17 11:00N 29°57' W 093°10'3 5.8
2017-Apr-17 10:30N 29°59' W 093°12'3 5.6
2017-Apr-17 10:00N 30°01' W 093°14'3 5.1
2017-Apr-17 09:30N 30°03' W 093°16'3 5.3
2017-Apr-17 09:00N 30°05' W 093°18'1 1.9
2017-Apr-17 08:30N 30°06' W 093°18'2 3.1
2017-Apr-17 08:00N 30°05' W 093°20'2 5.0
2017-Apr-17 07:30N 30°04' W 093°22'3 6.5
2017-Apr-17 07:01N 30°04' W 093°26'3 6.5
2017-Apr-17 06:30N 30°04' W 093°29'  
2017-Apr-11 21:38N 30°04' W 093°41'1 7.8
2017-Apr-11 21:30N 30°04' W 093°40'4 7.4
2017-Apr-11 21:00N 30°04' W 093°36'3 6.6
2017-Apr-11 20:30N 30°04' W 093°32'3 6.4
2017-Apr-11 20:00N 30°04' W 093°29'3 6.6
2017-Apr-11 19:30N 30°04' W 093°25'3 5.8
2017-Apr-11 19:00N 30°04' W 093°21'3 6.8
2017-Apr-11 18:31N 30°06' W 093°19'0 0.7
2017-Apr-11 18:00N 30°06' W 093°18'0 0.0
2017-Apr-11 17:30N 30°06' W 093°18'0 0.0
2017-Apr-11 17:00N 30°06' W 093°18'0 0.0
2017-Apr-11 16:30N 30°06' W 093°18'1 1.3
2017-Apr-11 16:00N 30°06' W 093°18'1 1.4
2017-Apr-11 15:30N 30°05' W 093°17'2 3.0
2017-Apr-11 15:00N 30°04' W 093°16'3 5.6
2017-Apr-11 14:30N 30°02' W 093°14'6 5.5
2017-Apr-11 13:30N 29°57' W 093°11'3 5.4
2017-Apr-11 13:00N 29°56' W 093°08'34 5.7
2017-Apr-11 07:05N 29°54' W 092°29'1 6.0
2017-Apr-11 06:54N 29°54' W 092°27'2 5.8
2017-Apr-11 06:30N 29°53' W 092°25'3 5.5
2017-Apr-11 06:00N 29°52' W 092°22'3 5.4
2017-Apr-11 05:30N 29°50' W 092°19'3 5.5
2017-Apr-11 05:00N 29°49' W 092°17'3 5.9
2017-Apr-11 04:30N 29°48' W 092°14'2 3.0
2017-Apr-11 04:00N 29°47' W 092°12'1 2.5
2017-Apr-11 03:30N 29°47' W 092°11'0 0.0
2017-Apr-11 03:00N 29°47' W 092°11'0 0.1
2017-Apr-11 02:31N 29°47' W 092°11'2 3.9
2017-Apr-11 02:00N 29°47' W 092°09'3 5.8
2017-Apr-11 01:30N 29°48' W 092°05'3 5.9
2017-Apr-11 01:00N 29°49' W 092°02'3 6.0
2017-Apr-11 00:30N 29°50' W 091°59'3 6.4
2017-Apr-11 00:00N 29°51' W 091°55'  
Track history (hours):
 
Tides and Currents Weather Stations Pressure Air Temp Water Temp Dewpoint Dewpoint Depression Visibility Wind Speed Wind Dir Waves Ship Positions

Ronnie Rogers

Owner: Florida Marine, LLC, Mandeville, LA. More information available from US FCC via Universal Licensing System and Coast Guard Vessel Documentation Center.

Last reported at 2017-Apr-18 02:05 UTC. Time now 2017-Apr-29 09:23 UTC.
Position N 29°51' W 091°53'.
Warning: this ship's position is 11 days out of date.

Length 27 m; draft 2.4 m.

Type: Towing. MMSI: 367113160.

Date/timePositionNaut miles runAvg speedWind from/ knotsBaromVisibWave heightAir tempDewpointWater temp
2017-Apr-18 02:05N 29°51' W 091°53'1 6.6
2017-Apr-18 02:00N 29°51' W 091°54'3 6.6
2017-Apr-18 01:30N 29°50' W 091°58'3 6.6
2017-Apr-18 01:00N 29°49' W 092°01'3 6.7
2017-Apr-18 00:30N 29°48' W 092°05'3 6.6
2017-Apr-18 00:00N 29°47' W 092°09'2 4.8
2017-Apr-17 23:30N 29°47' W 092°11'0 0.0
2017-Apr-17 23:00N 29°47' W 092°11'0 0.0
2017-Apr-17 22:30N 29°47' W 092°11'0 0.0
2017-Apr-17 22:00N 29°47' W 092°11'0 0.0
2017-Apr-17 21:30N 29°47' W 092°11'0 0.0
2017-Apr-17 21:01N 29°47' W 092°11'0 0.1
2017-Apr-17 20:30N 29°47' W 092°11'1 2.4
2017-Apr-17 20:00N 29°47' W 092°13'1 2.3
2017-Apr-17 19:30N 29°48' W 092°14'2 3.8
2017-Apr-17 19:00N 29°48' W 092°16'2 4.8
2017-Apr-17 18:30N 29°50' W 092°18'3 5.4
2017-Apr-17 18:00N 29°51' W 092°21'3 5.8
2017-Apr-17 17:29N 29°53' W 092°23'3 6.4
2017-Apr-17 17:00N 29°54' W 092°27'33 6.4
2017-Apr-17 11:52N 29°56' W 093°05'3 6.2
2017-Apr-17 11:20N 29°56' W 093°09'1 4.2
2017-Apr-17 11:00N 29°57' W 093°10'3 5.8
2017-Apr-17 10:30N 29°59' W 093°12'3 5.6
2017-Apr-17 10:00N 30°01' W 093°14'3 5.1
2017-Apr-17 09:30N 30°03' W 093°16'3 5.3
2017-Apr-17 09:00N 30°05' W 093°18'1 1.9
2017-Apr-17 08:30N 30°06' W 093°18'2 3.1
2017-Apr-17 08:00N 30°05' W 093°20'2 5.0
2017-Apr-17 07:30N 30°04' W 093°22'3 6.5
2017-Apr-17 07:01N 30°04' W 093°26'3 6.5
2017-Apr-17 06:30N 30°04' W 093°29'  
2017-Apr-11 21:38N 30°04' W 093°41'1 7.8
2017-Apr-11 21:30N 30°04' W 093°40'4 7.4
2017-Apr-11 21:00N 30°04' W 093°36'3 6.6
2017-Apr-11 20:30N 30°04' W 093°32'3 6.4
2017-Apr-11 20:00N 30°04' W 093°29'3 6.6
2017-Apr-11 19:30N 30°04' W 093°25'3 5.8
2017-Apr-11 19:00N 30°04' W 093°21'3 6.8
2017-Apr-11 18:31N 30°06' W 093°19'0 0.7
2017-Apr-11 18:00N 30°06' W 093°18'0 0.0
2017-Apr-11 17:30N 30°06' W 093°18'0 0.0
2017-Apr-11 17:00N 30°06' W 093°18'0 0.0
2017-Apr-11 16:30N 30°06' W 093°18'1 1.3
2017-Apr-11 16:00N 30°06' W 093°18'1 1.4
2017-Apr-11 15:30N 30°05' W 093°17'2 3.0
2017-Apr-11 15:00N 30°04' W 093°16'3 5.6
2017-Apr-11 14:30N 30°02' W 093°14'6 5.5
2017-Apr-11 13:30N 29°57' W 093°11'3 5.4
2017-Apr-11 13:00N 29°56' W 093°08'34 5.7
2017-Apr-11 07:05N 29°54' W 092°29'1 6.0
2017-Apr-11 06:54N 29°54' W 092°27'2 5.8
2017-Apr-11 06:30N 29°53' W 092°25'3 5.5
2017-Apr-11 06:00N 29°52' W 092°22'3 5.4
2017-Apr-11 05:30N 29°50' W 092°19'3 5.5
2017-Apr-11 05:00N 29°49' W 092°17'3 5.9
2017-Apr-11 04:30N 29°48' W 092°14'2 3.0
2017-Apr-11 04:00N 29°47' W 092°12'1 2.5
2017-Apr-11 03:30N 29°47' W 092°11'0 0.0
2017-Apr-11 03:00N 29°47' W 092°11'0 0.1
2017-Apr-11 02:31N 29°47' W 092°11'2 3.9
2017-Apr-11 02:00N 29°47' W 092°09'3 5.8
2017-Apr-11 01:30N 29°48' W 092°05'3 5.9
2017-Apr-11 01:00N 29°49' W 092°02'3 6.0
2017-Apr-11 00:30N 29°50' W 091°59'3 6.4
2017-Apr-11 00:00N 29°51' W 091°55'  

Dump ship's entire track history